Time;durP1;ratioP1;P1;durP2;ratioP2;P2;SDS_P1;SDS_P2;PMS_P1;PMS_P2;Temp;Humidity;BMP_temperature;BMP_pressure;BME280_temperature;BME280_humidity;BME280_pressure;Samples;Min_cycle;Max_cycle;Signal;HPM_P1;HPM_P2
2021/10/17 00:02:26;;;;;;;9.80;3.10;;;;;;;;;;5043391;28;20041;-59
2021/10/17 00:04:52;;;;;;;8.93;3.20;;;;;;;;;;5045276;28;20025;-58
2021/10/17 00:07:19;;;;;;;10.65;3.33;;;;;;;;;;5011730;28;20038;-58
2021/10/17 00:09:46;;;;;;;7.72;2.97;;;;;;;;;;5023965;28;20037;-58
2021/10/17 00:12:12;;;;;;;9.73;2.90;;;;;;;;;;5050527;28;20057;-58
2021/10/17 00:14:39;;;;;;;11.48;3.33;;;;;;;;;;5047652;28;20032;-58
2021/10/17 00:17:08;;;;;;;10.27;3.00;;;;;;;;;;5031047;28;20427;-58
2021/10/17 00:19:34;;;;;;;14.27;3.13;;;;;;;;;;5027470;28;20041;-58
2021/10/17 00:22:01;;;;;;;8.45;2.90;;;;;;;;;;5028742;28;20045;-58
2021/10/17 00:24:27;;;;;;;12.85;3.33;;;;;;;;;;5046075;28;20122;-58
2021/10/17 00:26:55;;;;;;;6.72;2.50;;;;;;;;;;5032934;28;20067;-58
2021/10/17 00:29:21;;;;;;;10.75;2.97;;;;;;;;;;5023943;28;20038;-58
2021/10/17 00:31:48;;;;;;;16.48;3.50;;;;;;;;;;5023957;28;20052;-58
2021/10/17 00:34:16;;;;;;;9.98;3.00;;;;;;;;;;5027036;28;20041;-60
2021/10/17 00:36:43;;;;;;;17.63;3.13;;;;;;;;;;5023303;28;20045;-59
2021/10/17 00:39:09;;;;;;;8.45;3.13;;;;;;;;;;5010887;28;20048;-59
2021/10/17 00:41:36;;;;;;;9.07;3.42;;;;;;;;;;5025370;28;20122;-59
2021/10/17 00:44:04;;;;;;;7.53;2.78;;;;;;;;;;5044035;28;20060;-59
2021/10/17 00:46:30;;;;;;;10.13;3.05;;;;;;;;;;5045034;28;20042;-58
2021/10/17 00:48:57;;;;;;;11.10;2.97;;;;;;;;;;5019666;28;20050;-59
2021/10/17 00:51:25;;;;;;;8.88;2.60;;;;;;;;;;5023287;28;20045;-59
2021/10/17 00:53:54;;;;;;;6.40;2.70;;;;;;;;;;5024054;28;20041;-60
2021/10/17 00:56:21;;;;;;;8.82;2.95;;;;;;;;;;5045527;28;20056;-59
2021/10/17 00:58:47;;;;;;;11.18;3.05;;;;;;;;;;5043250;28;20115;-59
2021/10/17 01:01:14;;;;;;;9.00;2.63;;;;;;;;;;5011856;28;20124;-59
2021/10/17 01:03:41;;;;;;;19.85;3.20;;;;;;;;;;5011619;28;20127;-58
2021/10/17 01:06:11;;;;;;;10.80;3.13;;;;;;;;;;5023654;28;20049;-60
2021/10/17 01:08:42;;;;;;;13.73;2.88;;;;;;;;;;5030426;28;20064;-58
2021/10/17 01:11:09;;;;;;;7.28;2.83;;;;;;;;;;5049670;28;20041;-59
2021/10/17 01:13:36;;;;;;;12.00;2.90;;;;;;;;;;5032857;28;20076;-59
2021/10/17 01:16:03;;;;;;;16.15;3.22;;;;;;;;;;5024631;28;20044;-59
2021/10/17 01:18:29;;;;;;;8.63;2.60;;;;;;;;;;5020684;28;20053;-58
2021/10/17 01:20:57;;;;;;;10.52;3.13;;;;;;;;;;5025608;28;20131;-59
2021/10/17 01:23:24;;;;;;;9.97;2.93;;;;;;;;;;5044745;28;20037;-59
2021/10/17 01:25:50;;;;;;;7.78;2.97;;;;;;;;;;5042105;28;20037;-60
2021/10/17 01:28:17;;;;;;;9.48;2.97;;;;;;;;;;5045422;28;20126;-60
2021/10/17 01:30:44;;;;;;;7.65;2.85;;;;;;;;;;5025684;28;20049;-60
2021/10/17 01:33:10;;;;;;;8.65;2.80;;;;;;;;;;5044008;28;20111;-58
2021/10/17 01:35:38;;;;;;;12.25;3.47;;;;;;;;;;5035083;28;20123;-59
2021/10/17 01:38:07;;;;;;;14.93;2.63;;;;;;;;;;5043582;28;20049;-58
2021/10/17 01:40:34;;;;;;;7.90;2.45;;;;;;;;;;5026050;28;20065;-59
2021/10/17 01:43:00;;;;;;;8.95;2.83;;;;;;;;;;5023577;28;20111;-58
2021/10/17 01:45:27;;;;;;;13.60;2.80;;;;;;;;;;5039429;28;20041;-58
2021/10/17 01:47:58;;;;;;;9.50;3.20;;;;;;;;;;5043123;28;20127;-59
2021/10/17 01:50:24;;;;;;;14.98;3.08;;;;;;;;;;5022770;28;20068;-59
2021/10/17 01:52:51;;;;;;;11.07;2.38;;;;;;;;;;5027086;28;20048;-58
2021/10/17 01:55:19;;;;;;;13.40;2.75;;;;;;;;;;5020222;28;20050;-58
2021/10/17 01:57:46;;;;;;;8.03;2.63;;;;;;;;;;5022654;28;20045;-58
2021/10/17 02:00:13;;;;;;;8.50;2.75;;;;;;;;;;5025785;28;20060;-58
2021/10/17 02:02:40;;;;;;;11.75;3.00;;;;;;;;;;5024771;28;20119;-59
2021/10/17 02:05:07;;;;;;;9.23;2.72;;;;;;;;;;5021017;28;20053;-58
2021/10/17 02:07:36;;;;;;;9.85;2.95;;;;;;;;;;5022398;28;20123;-59
2021/10/17 02:10:04;;;;;;;11.25;3.05;;;;;;;;;;5020403;28;20041;-59
2021/10/17 02:12:32;;;;;;;11.98;3.63;;;;;;;;;;5025166;28;20045;-58
2021/10/17 02:14:59;;;;;;;10.33;2.57;;;;;;;;;;5025577;28;20041;-59
2021/10/17 02:17:30;;;;;;;9.80;2.70;;;;;;;;;;5019577;28;20074;-58
2021/10/17 02:19:56;;;;;;;7.65;2.53;;;;;;;;;;5022542;28;20042;-58
2021/10/17 02:22:23;;;;;;;9.13;3.20;;;;;;;;;;5014098;28;20041;-58
2021/10/17 02:24:49;;;;;;;10.75;2.70;;;;;;;;;;5043978;28;20055;-59
2021/10/17 02:27:17;;;;;;;12.57;2.97;;;;;;;;;;5028805;28;20041;-58
2021/10/17 02:29:45;;;;;;;10.43;3.07;;;;;;;;;;5026777;28;20103;-58
2021/10/17 02:32:11;;;;;;;8.77;2.45;;;;;;;;;;5019850;28;20050;-58
2021/10/17 02:34:38;;;;;;;9.52;2.88;;;;;;;;;;5016160;28;20042;-58
2021/10/17 02:37:05;;;;;;;8.15;2.65;;;;;;;;;;5027162;28;20052;-58
2021/10/17 02:39:31;;;;;;;8.52;2.85;;;;;;;;;;5041826;28;20053;-58
2021/10/17 02:41:57;;;;;;;9.02;2.65;;;;;;;;;;5033245;28;20060;-59
2021/10/17 02:44:24;;;;;;;8.30;2.88;;;;;;;;;;5024003;28;20038;-59
2021/10/17 02:46:52;;;;;;;12.85;2.72;;;;;;;;;;5021261;28;20115;-59
2021/10/17 02:49:19;;;;;;;10.63;2.83;;;;;;;;;;5026886;28;20045;-58
2021/10/17 02:51:45;;;;;;;7.15;2.90;;;;;;;;;;5022670;28;20038;-58
2021/10/17 02:54:12;;;;;;;10.90;2.90;;;;;;;;;;5026234;28;20056;-59
2021/10/17 02:56:39;;;;;;;11.48;3.28;;;;;;;;;;5043046;28;20056;-58
2021/10/17 02:59:05;;;;;;;8.27;2.90;;;;;;;;;;5039165;28;20049;-60
2021/10/17 03:01:38;;;;;;;9.65;3.25;;;;;;;;;;5111276;22;20018;-61
2021/10/17 03:04:06;;;;;;;9.50;3.03;;;;;;;;;;5953925;24;20026;-59
2021/10/17 03:06:35;;;;;;;13.07;3.13;;;;;;;;;;5970189;23;20104;-58
2021/10/17 03:09:01;;;;;;;17.55;3.78;;;;;;;;;;5985953;23;20037;-59
2021/10/17 03:11:28;;;;;;;12.18;2.60;;;;;;;;;;5974443;23;20112;-59
2021/10/17 03:13:54;;;;;;;7.32;2.95;;;;;;;;;;5990633;23;20176;-58
2021/10/17 03:16:25;;;;;;;12.77;3.10;;;;;;;;;;5973286;23;20038;-58
2021/10/17 03:18:52;;;;;;;7.28;2.88;;;;;;;;;;5963308;23;20041;-58
2021/10/17 03:21:20;;;;;;;12.60;3.65;;;;;;;;;;5971972;23;20045;-59
2021/10/17 03:23:46;;;;;;;17.13;3.30;;;;;;;;;;5969310;23;20114;-58
2021/10/17 03:26:14;;;;;;;9.77;3.00;;;;;;;;;;5966114;23;20079;-58
2021/10/17 03:28:40;;;;;;;13.98;3.03;;;;;;;;;;5955875;23;20038;-58
2021/10/17 03:31:08;;;;;;;11.10;3.03;;;;;;;;;;5968876;23;20132;-57
2021/10/17 03:33:35;;;;;;;10.10;3.75;;;;;;;;;;5974623;23;20057;-58
2021/10/17 03:36:02;;;;;;;15.02;3.47;;;;;;;;;;5964957;23;20038;-58
2021/10/17 03:38:31;;;;;;;11.82;3.38;;;;;;;;;;5966622;24;20034;-58
2021/10/17 03:40:58;;;;;;;13.27;3.65;;;;;;;;;;5968473;23;20034;-58
2021/10/17 03:43:24;;;;;;;12.00;3.40;;;;;;;;;;5962368;23;20132;-58
2021/10/17 03:45:51;;;;;;;15.50;3.42;;;;;;;;;;5965130;23;20058;-58
2021/10/17 03:48:23;;;;;;;11.55;3.85;;;;;;;;;;5965385;24;20104;-58
2021/10/17 03:50:49;;;;;;;13.90;3.60;;;;;;;;;;5971765;24;20120;-58
2021/10/17 03:53:16;;;;;;;14.60;3.50;;;;;;;;;;5967390;24;20042;-58
2021/10/17 03:55:44;;;;;;;11.07;3.33;;;;;;;;;;5970758;23;20080;-59
2021/10/17 03:58:13;;;;;;;8.75;3.22;;;;;;;;;;5959450;23;20038;-59
2021/10/17 04:00:39;;;;;;;20.45;3.65;;;;;;;;;;5970015;23;20077;-58
2021/10/17 04:03:06;;;;;;;16.08;3.33;;;;;;;;;;5970325;23;20062;-58
2021/10/17 04:05:32;;;;;;;12.75;3.17;;;;;;;;;;5965895;23;20029;-59
2021/10/17 04:08:00;;;;;;;13.43;3.22;;;;;;;;;;5969213;23;20042;-59
2021/10/17 04:10:27;;;;;;;12.65;3.45;;;;;;;;;;5986686;23;20037;-58
2021/10/17 04:12:55;;;;;;;13.48;3.47;;;;;;;;;;5998814;23;20045;-59
2021/10/17 04:15:22;;;;;;;14.73;4.03;;;;;;;;;;5966126;23;20137;-58
2021/10/17 04:17:49;;;;;;;13.10;3.72;;;;;;;;;;5994826;23;20038;-58
2021/10/17 04:20:15;;;;;;;11.55;3.88;;;;;;;;;;5992685;23;20045;-59
2021/10/17 04:22:42;;;;;;;14.35;4.07;;;;;;;;;;5972626;24;20030;-58
2021/10/17 04:25:09;;;;;;;16.60;4.07;;;;;;;;;;5972630;24;20022;-58
2021/10/17 04:27:40;;;;;;;9.43;3.85;;;;;;;;;;5966978;24;20119;-59
2021/10/17 04:30:09;;;;;;;9.13;3.72;;;;;;;;;;5979888;24;20030;-59
2021/10/17 04:32:35;;;;;;;13.30;4.00;;;;;;;;;;5968254;24;20174;-58
2021/10/17 04:35:02;;;;;;;10.48;3.65;;;;;;;;;;5972837;23;20042;-59
2021/10/17 04:37:47;;;;;;;11.57;4.07;;;;;;;;;;5965096;24;20026;-58
2021/10/17 04:40:14;;;;;;;14.85;3.85;;;;;;;;;;5944994;24;20059;-59
2021/10/17 04:42:41;;;;;;;10.07;3.25;;;;;;;;;;5960722;24;20035;-58
2021/10/17 04:45:09;;;;;;;10.02;3.83;;;;;;;;;;5966424;24;20038;-59
2021/10/17 04:47:39;;;;;;;13.40;4.18;;;;;;;;;;5958447;24;20066;-58
2021/10/17 04:50:06;;;;;;;9.88;4.03;;;;;;;;;;5972266;24;20038;-58
2021/10/17 04:52:32;;;;;;;10.20;3.58;;;;;;;;;;5958083;24;20026;-58
2021/10/17 04:54:59;;;;;;;17.88;3.65;;;;;;;;;;5943909;24;20030;-58
2021/10/17 04:57:27;;;;;;;10.13;3.40;;;;;;;;;;5957679;24;20033;-59
2021/10/17 04:59:54;;;;;;;10.15;3.67;;;;;;;;;;5998234;23;20026;-58
2021/10/17 05:02:21;;;;;;;16.65;3.78;;;;;;;;;;5993080;23;20049;-58
2021/10/17 05:04:48;;;;;;;8.17;3.43;;;;;;;;;;5971365;24;20030;-59
2021/10/17 05:07:38;;;;;;;12.23;3.88;;;;;;;;;;6016614;23;20033;-58
2021/10/17 05:10:05;;;;;;;11.10;3.35;;;;;;;;;;6019874;23;20025;-58
2021/10/17 05:12:31;;;;;;;13.35;3.90;;;;;;;;;;5993482;23;20053;-59
2021/10/17 05:14:58;;;;;;;8.35;3.60;;;;;;;;;;5973615;24;20100;-58
2021/10/17 05:17:33;;;;;;;8.68;3.33;;;;;;;;;;5971409;24;20022;-58
2021/10/17 05:20:00;;;;;;;12.48;3.90;;;;;;;;;;5968354;24;20037;-58
2021/10/17 05:22:26;;;;;;;13.20;4.07;;;;;;;;;;5977466;24;20041;-58
2021/10/17 05:24:53;;;;;;;9.50;3.70;;;;;;;;;;5993697;23;20022;-58
2021/10/17 05:27:32;;;;;;;15.50;4.20;;;;;;;;;;5972609;24;20032;-58
2021/10/17 05:29:58;;;;;;;9.88;3.53;;;;;;;;;;5968307;24;20026;-59
2021/10/17 05:32:25;;;;;;;11.85;4.05;;;;;;;;;;5997349;23;20062;-58
2021/10/17 05:34:53;;;;;;;13.35;4.05;;;;;;;;;;5975228;23;20026;-58
2021/10/17 05:37:27;;;;;;;11.07;4.10;;;;;;;;;;5971737;24;20054;-59
2021/10/17 05:39:53;;;;;;;8.32;3.65;;;;;;;;;;5963634;24;20276;-58
2021/10/17 05:42:20;;;;;;;17.17;3.85;;;;;;;;;;5950247;24;20018;-59
2021/10/17 05:44:46;;;;;;;11.90;4.00;;;;;;;;;;5937782;23;20042;-57
2021/10/17 05:47:15;;;;;;;12.00;3.40;;;;;;;;;;5971185;23;20040;-58
2021/10/17 05:49:41;;;;;;;;;;;;;;;;;;5980348;23;20044;-60
2021/10/17 05:52:09;;;;;;;12.48;3.85;;;;;;;;;;5990935;24;19955;-59
2021/10/17 05:54:36;;;;;;;19.20;4.07;;;;;;;;;;5969080;24;20034;-59
2021/10/17 05:57:06;;;;;;;11.27;3.97;;;;;;;;;;6022307;23;20107;-59
2021/10/17 05:59:33;;;;;;;13.25;4.07;;;;;;;;;;5976765;24;20030;-59
2021/10/17 06:01:59;;;;;;;12.07;3.63;;;;;;;;;;5998898;23;20277;-59
2021/10/17 06:04:26;;;;;;;10.85;4.47;;;;;;;;;;5941443;24;20045;-58
2021/10/17 06:07:02;;;;;;;13.48;4.32;;;;;;;;;;5969974;24;20101;-59
2021/10/17 06:09:33;;;;;;;11.68;3.55;;;;;;;;;;5941078;24;20049;-59
2021/10/17 06:12:00;;;;;;;9.35;3.60;;;;;;;;;;5929258;24;20031;-59
2021/10/17 06:14:26;;;;;;;14.88;4.32;;;;;;;;;;5942818;24;20038;-58
2021/10/17 06:16:53;;;;;;;13.05;4.03;;;;;;;;;;5940433;24;20121;-58
2021/10/17 06:19:20;;;;;;;9.07;3.97;;;;;;;;;;5945966;24;20077;-58
2021/10/17 06:21:48;;;;;;;11.85;4.18;;;;;;;;;;5920442;24;20034;-58
2021/10/17 06:24:15;;;;;;;11.15;3.90;;;;;;;;;;5939124;24;20026;-58
2021/10/17 06:26:46;;;;;;;13.88;4.40;;;;;;;;;;5938736;24;20034;-58
2021/10/17 06:29:13;;;;;;;8.60;3.92;;;;;;;;;;5916447;24;20030;-58
2021/10/17 06:31:40;;;;;;;12.95;3.92;;;;;;;;;;5916659;24;20065;-59
2021/10/17 06:34:06;;;;;;;11.45;4.25;;;;;;;;;;5918727;24;20035;-59
2021/10/17 06:36:37;;;;;;;14.88;4.40;;;;;;;;;;5913721;24;20035;-59
2021/10/17 06:39:03;;;;;;;12.85;4.45;;;;;;;;;;5940782;24;20030;-58
2021/10/17 06:41:30;;;;;;;11.00;3.38;;;;;;;;;;5929909;24;20026;-58
2021/10/17 06:43:58;;;;;;;13.77;4.40;;;;;;;;;;5945262;24;20124;-58
2021/10/17 06:46:25;;;;;;;11.55;4.53;;;;;;;;;;5935714;24;20031;-58
2021/10/17 06:48:51;;;;;;;13.35;5.00;;;;;;;;;;5937383;24;20042;-58
2021/10/17 06:51:18;;;;;;;13.15;4.22;;;;;;;;;;5938991;24;20042;-58
2021/10/17 06:53:44;;;;;;;17.05;4.63;;;;;;;;;;5936290;24;20031;-58
2021/10/17 06:56:13;;;;;;;20.40;4.43;;;;;;;;;;5960007;24;20132;-60
2021/10/17 06:58:41;;;;;;;13.32;4.93;;;;;;;;;;5936794;24;20062;-58
2021/10/17 07:01:08;;;;;;;18.50;4.75;;;;;;;;;;5935446;24;20030;-59
2021/10/17 07:03:35;;;;;;;16.57;4.13;;;;;;;;;;5937133;24;20118;-58
2021/10/17 07:06:04;;;;;;;11.18;4.30;;;;;;;;;;5944736;24;20050;-58
2021/10/17 07:08:30;;;;;;;16.42;4.97;;;;;;;;;;5950439;24;20034;-58
2021/10/17 07:10:57;;;;;;;14.07;4.07;;;;;;;;;;5935757;24;20102;-58
2021/10/17 07:13:24;;;;;;;13.27;3.97;;;;;;;;;;5932643;24;20089;-59
2021/10/17 07:15:50;;;;;;;11.88;4.03;;;;;;;;;;5941795;24;20038;-58
2021/10/17 07:18:20;;;;;;;17.50;4.38;;;;;;;;;;5956600;24;20042;-58
2021/10/17 07:20:47;;;;;;;12.82;4.47;;;;;;;;;;5958883;24;20030;-59
2021/10/17 07:23:14;;;;;;;17.30;4.45;;;;;;;;;;5930097;24;20034;-59
2021/10/17 07:25:41;;;;;;;14.90;4.95;;;;;;;;;;5945344;24;20050;-58
2021/10/17 07:28:09;;;;;;;16.75;5.25;;;;;;;;;;5934338;24;20030;-58
2021/10/17 07:30:36;;;;;;;15.57;4.90;;;;;;;;;;5936330;24;20030;-58
2021/10/17 07:33:03;;;;;;;17.50;5.55;;;;;;;;;;5939971;24;20133;-58
2021/10/17 07:35:31;;;;;;;15.38;4.97;;;;;;;;;;5939027;24;20047;-58
2021/10/17 07:38:00;;;;;;;13.45;4.72;;;;;;;;;;5959853;24;20031;-58
2021/10/17 07:40:27;;;;;;;11.68;4.30;;;;;;;;;;5926546;24;20042;-58
2021/10/17 07:42:53;;;;;;;14.77;4.70;;;;;;;;;;5964625;24;20033;-58
2021/10/17 07:45:20;;;;;;;10.00;4.78;;;;;;;;;;5936001;24;20032;-58
2021/10/17 07:47:47;;;;;;;21.08;5.68;;;;;;;;;;5934675;24;20023;-59
2021/10/17 07:50:14;;;;;;;12.40;4.80;;;;;;;;;;5929781;24;20036;-58
2021/10/17 07:52:42;;;;;;;18.90;5.47;;;;;;;;;;5925528;24;20026;-58
2021/10/17 07:55:08;;;;;;;14.23;5.07;;;;;;;;;;5930849;24;20042;-58
2021/10/17 07:57:47;;;;;;;15.75;4.68;;;;;;;;;;5936777;24;20041;-58
2021/10/17 08:00:16;;;;;;;14.93;5.25;;;;;;;;;;5922630;24;20124;-58
2021/10/17 08:02:43;;;;;;;12.60;4.45;;;;;;;;;;5946738;24;20030;-58
2021/10/17 08:05:10;;;;;;;15.60;4.72;;;;;;;;;;5954051;24;20038;-58
2021/10/17 08:07:37;;;;;;;14.40;3.97;;;;;;;;;;5968804;24;20041;-58
2021/10/17 08:10:05;;;;;;;13.23;4.40;;;;;;;;;;5968571;24;20045;-58
2021/10/17 08:12:31;;;;;;;16.13;4.25;;;;;;;;;;5996010;23;20030;-58
2021/10/17 08:14:58;;;;;;;13.75;4.65;;;;;;;;;;5969982;23;20121;-58
2021/10/17 08:17:26;;;;;;;11.40;4.40;;;;;;;;;;5973010;23;20022;-58
2021/10/17 08:19:52;;;;;;;15.23;4.13;;;;;;;;;;5965697;23;20157;-59
2021/10/17 08:22:19;;;;;;;13.85;4.38;;;;;;;;;;5971989;23;20030;-58
2021/10/17 08:24:45;;;;;;;13.73;4.28;;;;;;;;;;5995246;23;20043;-58
2021/10/17 08:27:13;;;;;;;14.32;4.43;;;;;;;;;;5973894;23;20026;-58
2021/10/17 08:29:40;;;;;;;13.20;4.80;;;;;;;;;;5973086;23;20100;-58
2021/10/17 08:32:07;;;;;;;14.00;4.93;;;;;;;;;;5968529;24;20038;-58
2021/10/17 08:34:34;;;;;;;11.77;5.05;;;;;;;;;;5973609;24;20026;-58
2021/10/17 08:37:07;;;;;;;12.15;4.13;;;;;;;;;;5969628;24;20043;-58
2021/10/17 08:39:34;;;;;;;13.07;4.40;;;;;;;;;;5971433;24;20062;-58
2021/10/17 08:42:00;;;;;;;10.10;4.18;;;;;;;;;;5970330;24;20050;-58
2021/10/17 08:44:28;;;;;;;15.57;3.97;;;;;;;;;;5998066;23;20030;-58
2021/10/17 08:46:55;;;;;;;13.90;4.40;;;;;;;;;;5969133;23;20048;-58
2021/10/17 08:49:22;;;;;;;18.52;4.68;;;;;;;;;;5971989;24;20040;-60
2021/10/17 08:51:49;;;;;;;10.73;4.93;;;;;;;;;;5969095;23;20086;-59
2021/10/17 08:54:15;;;;;;;14.63;5.38;;;;;;;;;;5974340;23;20030;-60
2021/10/17 08:56:47;;;;;;;15.25;4.57;;;;;;;;;;5976403;23;20085;-61
2021/10/17 08:59:13;;;;;;;16.33;4.80;;;;;;;;;;5974814;24;20030;-58
2021/10/17 09:01:42;;;;;;;12.85;4.68;;;;;;;;;;5968803;24;20053;-58
2021/10/17 09:04:10;;;;;;;20.15;4.15;;;;;;;;;;5948474;24;20041;-59
2021/10/17 09:06:37;;;;;;;16.83;4.97;;;;;;;;;;5948414;24;20030;-58
2021/10/17 09:09:05;;;;;;;13.05;4.35;;;;;;;;;;5967135;24;20031;-58
2021/10/17 09:11:36;;;;;;;14.23;4.38;;;;;;;;;;5942987;24;20027;-58
2021/10/17 09:14:02;;;;;;;15.00;4.85;;;;;;;;;;5942702;24;20022;-58
2021/10/17 09:16:29;;;;;;;18.17;4.95;;;;;;;;;;5927735;24;20107;-58
2021/10/17 09:19:08;;;;;;;12.75;4.68;;;;;;;;;;5939202;24;20040;-58
2021/10/17 09:21:34;;;;;;;14.57;4.65;;;;;;;;;;5943309;24;20100;-59
2021/10/17 09:24:01;;;;;;;13.48;4.53;;;;;;;;;;5964497;24;20030;-58
2021/10/17 09:26:28;;;;;;;13.60;4.93;;;;;;;;;;5991486;23;20038;-59
2021/10/17 09:28:55;;;;;;;13.18;4.65;;;;;;;;;;5986178;23;20030;-58
2021/10/17 09:31:22;;;;;;;18.77;5.40;;;;;;;;;;5943391;24;20026;-60
2021/10/17 09:33:49;;;;;;;12.93;5.88;;;;;;;;;;5964940;24;20078;-58
2021/10/17 09:36:19;;;;;;;13.15;4.78;;;;;;;;;;5941919;24;20162;-59
2021/10/17 09:38:47;;;;;;;17.23;5.20;;;;;;;;;;5937846;24;20048;-58
2021/10/17 09:41:14;;;;;;;14.32;5.03;;;;;;;;;;5945663;24;20030;-58
2021/10/17 09:43:43;;;;;;;13.45;5.22;;;;;;;;;;5936322;24;20060;-58
2021/10/17 09:46:10;;;;;;;;;;;;;;;;;;5944861;24;20058;-58
2021/10/17 09:48:36;;;;;;;10.63;5.00;;;;;;;;;;5937400;24;19937;-58
2021/10/17 09:51:03;;;;;;;22.15;6.22;;;;;;;;;;5943838;24;20031;-59
2021/10/17 09:53:43;;;;;;;15.15;5.38;;;;;;;;;;5965853;24;20909;-57
2021/10/17 09:56:10;;;;;;;15.50;4.97;;;;;;;;;;5943288;24;20032;-59
2021/10/17 09:58:36;;;;;;;13.32;4.88;;;;;;;;;;5938708;24;20039;-59
2021/10/17 10:01:03;;;;;;;16.65;5.35;;;;;;;;;;5989443;23;20050;-59
2021/10/17 10:03:31;;;;;;;15.65;5.72;;;;;;;;;;5998746;23;20030;-59
2021/10/17 10:05:58;;;;;;;12.13;4.80;;;;;;;;;;5965443;23;20097;-59
2021/10/17 10:08:24;;;;;;;14.18;5.13;;;;;;;;;;5968056;24;20022;-59
2021/10/17 10:10:52;;;;;;;13.00;5.43;;;;;;;;;;5966247;23;20040;-60
2021/10/17 10:13:19;;;;;;;13.43;4.67;;;;;;;;;;5970884;24;20116;-59
2021/10/17 10:15:46;;;;;;;15.15;5.65;;;;;;;;;;5948292;24;20045;-59
2021/10/17 10:18:16;;;;;;;14.43;5.63;;;;;;;;;;5942484;24;20034;-59
2021/10/17 10:20:43;;;;;;;10.43;4.68;;;;;;;;;;5962980;24;20132;-58
2021/10/17 10:23:10;;;;;;;21.17;5.88;;;;;;;;;;5961232;24;20036;-59
2021/10/17 10:25:38;;;;;;;12.45;5.13;;;;;;;;;;5968431;24;20053;-58
2021/10/17 10:28:10;;;;;;;15.88;5.45;;;;;;;;;;5998199;23;20076;-59
2021/10/17 10:30:38;;;;;;;21.25;5.57;;;;;;;;;;6006733;23;20030;-58
2021/10/17 10:33:12;;;;;;;16.58;6.05;;;;;;;;;;5973556;24;20057;-58
2021/10/17 10:35:54;;;;;;;14.43;6.10;;;;;;;;;;5995224;23;20116;-59
2021/10/17 10:38:40;;;;;;;16.25;6.03;;;;;;;;;;5973382;24;20021;-58
2021/10/17 10:41:14;;;;;;;10.88;4.93;;;;;;;;;;5971111;24;20037;-58
2021/10/17 10:43:42;;;;;;;13.90;5.13;;;;;;;;;;5948519;24;20058;-59
2021/10/17 10:46:08;;;;;;;21.55;5.10;;;;;;;;;;5970352;24;20036;-59
2021/10/17 10:48:45;;;;;;;13.50;5.30;;;;;;;;;;5973424;24;20030;-58
2021/10/17 10:51:12;;;;;;;12.02;4.72;;;;;;;;;;5971086;24;20029;-59
2021/10/17 10:53:45;;;;;;;10.48;5.07;;;;;;;;;;5974924;24;20046;-59
2021/10/17 10:56:12;;;;;;;11.50;4.97;;;;;;;;;;5991941;23;20132;-59
2021/10/17 10:58:54;;;;;;;12.93;5.72;;;;;;;;;;5972785;24;20026;-59
2021/10/17 11:01:43;;;;;;;12.45;5.40;;;;;;;;;;5960468;24;20085;-58
2021/10/17 11:04:10;;;;;;;18.60;6.75;;;;;;;;;;5996998;23;20070;-59
2021/10/17 11:07:02;;;;;;;17.08;6.97;;;;;;;;;;5971065;24;20095;-58
2021/10/17 11:09:28;;;;;;;14.50;6.18;;;;;;;;;;5893942;24;20027;-59
2021/10/17 11:11:54;;;;;;;13.05;5.70;;;;;;;;;;5962639;24;20034;-59
2021/10/17 11:14:21;;;;;;;13.18;5.18;;;;;;;;;;5968582;24;20030;-60
2021/10/17 11:16:51;;;;;;;17.23;5.10;;;;;;;;;;5955647;24;20041;-58
2021/10/17 11:19:20;;;;;;;14.65;5.30;;;;;;;;;;5973599;23;20026;-58
2021/10/17 11:21:47;;;;;;;13.88;5.35;;;;;;;;;;5969461;23;20041;-58
2021/10/17 11:24:18;;;;;;;12.00;4.72;;;;;;;;;;5972716;24;20042;-59
2021/10/17 11:27:05;;;;;;;12.13;4.90;;;;;;;;;;5970278;24;20030;-59
2021/10/17 11:29:37;;;;;;;12.38;4.78;;;;;;;;;;5942693;24;20036;-58
2021/10/17 11:32:07;;;;;;;11.07;5.03;;;;;;;;;;5965935;23;20039;-58
2021/10/17 11:34:34;;;;;;;13.32;4.78;;;;;;;;;;5972723;23;20058;-60
2021/10/17 11:37:21;;;;;;;16.10;4.95;;;;;;;;;;6021122;23;20034;-59
2021/10/17 11:39:55;;;;;;;12.90;4.60;;;;;;;;;;5884356;24;20023;-59
2021/10/17 11:42:21;;;;;;;10.32;4.50;;;;;;;;;;5960133;23;20033;-59
2021/10/17 11:44:48;;;;;;;10.48;4.65;;;;;;;;;;5969944;23;20045;-59
2021/10/17 11:47:18;;;;;;;17.05;4.90;;;;;;;;;;5969194;23;20037;-58
2021/10/17 11:49:45;;;;;;;13.43;4.35;;;;;;;;;;5992796;23;20066;-59
2021/10/17 11:52:12;;;;;;;13.60;4.22;;;;;;;;;;5950378;24;20101;-59
2021/10/17 11:54:41;;;;;;;16.73;4.72;;;;;;;;;;5959478;24;20128;-59
2021/10/17 11:57:27;;;;;;;11.45;4.47;;;;;;;;;;5968871;24;20030;-58
2021/10/17 11:59:57;;;;;;;12.32;4.38;;;;;;;;;;5969779;24;20030;-58
2021/10/17 12:02:35;;;;;;;9.10;4.45;;;;;;;;;;6019317;23;20037;-59
2021/10/17 12:05:01;;;;;;;13.18;4.90;;;;;;;;;;5991178;23;20046;-59
2021/10/17 12:07:28;;;;;;;13.00;4.47;;;;;;;;;;5971108;24;20124;-59
2021/10/17 12:09:55;;;;;;;10.35;4.40;;;;;;;;;;5966518;23;20037;-58
2021/10/17 12:12:22;;;;;;;10.55;4.03;;;;;;;;;;5995991;23;20046;-58
2021/10/17 12:15:00;;;;;;;10.23;4.18;;;;;;;;;;5965631;24;20037;-59
2021/10/17 12:17:39;;;;;;;13.18;4.35;;;;;;;;;;5965275;24;20026;-59
2021/10/17 12:20:10;;;;;;;10.48;4.03;;;;;;;;;;5952749;24;20038;-59
2021/10/17 12:22:39;;;;;;;14.35;5.22;;;;;;;;;;5958753;24;20041;-59
2021/10/17 12:25:06;;;;;;;13.68;5.13;;;;;;;;;;5993809;23;20034;-58
2021/10/17 12:27:52;;;;;;;14.85;4.88;;;;;;;;;;5997157;23;20034;-59
2021/10/17 12:30:20;;;;;;;12.65;3.97;;;;;;;;;;5991906;23;20030;-58
2021/10/17 12:32:50;;;;;;;8.45;3.63;;;;;;;;;;5950272;24;20042;-58
2021/10/17 12:35:22;;;;;;;13.05;3.58;;;;;;;;;;5964955;24;20040;-58
2021/10/17 12:37:49;;;;;;;11.80;3.58;;;;;;;;;;5961889;24;20038;-59
2021/10/17 12:40:15;;;;;;;9.75;3.95;;;;;;;;;;5969753;24;20040;-59
2021/10/17 12:42:45;;;;;;;9.48;3.88;;;;;;;;;;5995065;24;20168;-59
2021/10/17 12:45:13;;;;;;;9.43;3.83;;;;;;;;;;5968024;23;20026;-59
2021/10/17 12:48:00;;;;;;;16.42;3.90;;;;;;;;;;5970293;23;20094;-58
2021/10/17 12:50:35;;;;;;;12.40;4.00;;;;;;;;;;5958805;24;20090;-60
2021/10/17 12:53:06;;;;;;;12.57;4.18;;;;;;;;;;5966647;24;20034;-60
2021/10/17 12:55:33;;;;;;;9.77;4.20;;;;;;;;;;5969590;24;20033;-59
2021/10/17 12:58:14;;;;;;;14.75;3.75;;;;;;;;;;5997083;23;20040;-58
2021/10/17 13:00:41;;;;;;;9.82;3.72;;;;;;;;;;5970459;23;20100;-61
2021/10/17 13:03:16;;;;;;;12.98;3.58;;;;;;;;;;5968078;23;20044;-59
2021/10/17 13:05:51;;;;;;;15.65;3.53;;;;;;;;;;5941878;24;20027;-59
2021/10/17 13:08:18;;;;;;;7.35;3.58;;;;;;;;;;5926071;24;20117;-59
2021/10/17 13:10:45;;;;;;;13.60;4.32;;;;;;;;;;5917144;24;20035;-59
2021/10/17 13:13:16;;;;;;;9.57;3.63;;;;;;;;;;5944498;24;20023;-59
2021/10/17 13:15:43;;;;;;;10.20;4.15;;;;;;;;;;5989535;23;20136;-59
2021/10/17 13:18:12;;;;;;;8.40;3.63;;;;;;;;;;5965702;23;20037;-59
2021/10/17 13:20:39;;;;;;;8.90;4.30;;;;;;;;;;5944524;24;20030;-59
2021/10/17 13:23:08;;;;;;;9.30;3.67;;;;;;;;;;5942897;24;20041;-61
2021/10/17 13:25:37;;;;;;;12.85;4.18;;;;;;;;;;5991567;23;20095;-59
2021/10/17 13:28:04;;;;;;;9.77;3.85;;;;;;;;;;5976708;23;20030;-59
2021/10/17 13:30:31;;;;;;;10.07;4.10;;;;;;;;;;5945543;24;20033;-59
2021/10/17 13:32:58;;;;;;;11.77;3.53;;;;;;;;;;5942055;24;20035;-60
2021/10/17 13:35:25;;;;;;;12.50;3.95;;;;;;;;;;5944750;24;20018;-59
2021/10/17 13:37:56;;;;;;;10.50;3.85;;;;;;;;;;5933082;24;20038;-59
2021/10/17 13:40:26;;;;;;;10.57;3.55;;;;;;;;;;5946813;24;20030;-59
2021/10/17 13:42:54;;;;;;;11.98;3.83;;;;;;;;;;5944900;24;20026;-59
2021/10/17 13:45:21;;;;;;;12.05;3.40;;;;;;;;;;5944095;24;20034;-59
2021/10/17 13:47:50;;;;;;;11.10;3.28;;;;;;;;;;5940381;24;20046;-60
2021/10/17 13:50:17;;;;;;;12.65;3.97;;;;;;;;;;5944623;24;20042;-59
2021/10/17 13:52:43;;;;;;;12.45;4.57;;;;;;;;;;5918266;24;20049;-59
2021/10/17 13:55:11;;;;;;;14.00;4.57;;;;;;;;;;5944708;24;20034;-59
2021/10/17 13:57:39;;;;;;;12.00;4.18;;;;;;;;;;5941901;24;20030;-59
2021/10/17 14:00:06;;;;;;;11.65;3.15;;;;;;;;;;5943399;23;20035;-59
2021/10/17 14:02:33;;;;;;;7.18;2.65;;;;;;;;;;5947158;23;20033;-69
2021/10/17 14:04:59;;;;;;;10.23;2.90;;;;;;;;;;5967728;23;20041;-60
2021/10/17 14:07:32;;;;;;;9.57;3.05;;;;;;;;;;5970293;23;20158;-59
2021/10/17 14:09:58;;;;;;;12.32;2.95;;;;;;;;;;5969146;23;20038;-60
2021/10/17 14:12:27;;;;;;;6.53;2.72;;;;;;;;;;5997612;23;20025;-62
2021/10/17 14:14:55;;;;;;;7.07;2.60;;;;;;;;;;5971088;24;20026;-60
2021/10/17 14:17:25;;;;;;;7.27;3.30;;;;;;;;;;5962340;24;20104;-60
2021/10/17 14:19:52;;;;;;;11.30;2.80;;;;;;;;;;5958985;24;20271;-60
2021/10/17 14:22:18;;;;;;;8.95;2.58;;;;;;;;;;5972209;24;20042;-60
2021/10/17 14:24:45;;;;;;;6.50;2.40;;;;;;;;;;5961198;23;20104;-61
2021/10/17 14:27:14;;;;;;;9.73;2.45;;;;;;;;;;5959713;24;20030;-59
2021/10/17 14:29:40;;;;;;;6.95;2.55;;;;;;;;;;5958384;23;20026;-61
2021/10/17 14:32:08;;;;;;;7.10;2.50;;;;;;;;;;5973486;23;20018;-60
2021/10/17 14:34:37;;;;;;;5.53;2.13;;;;;;;;;;5994800;23;20029;-60
2021/10/17 14:37:06;;;;;;;12.25;3.00;;;;;;;;;;5973265;24;20448;-61
2021/10/17 14:39:32;;;;;;;;;;;;;;;;;;5983254;23;20049;-60
2021/10/17 14:41:58;;;;;;;8.45;3.40;;;;;;;;;;5993179;23;19920;-60